DAAP

Illizi Takhamalt Airport

Illizi, Algeria
METAR DAAP 221700Z 03010KT 6000 NSC 36/06 Q1011
Observed Flight Rules
Apr-22 @ 17:00 UTC (an hour ago) Marginal Visual Flight Rules
Wind Visibility Clouds
30° at 10 knots 6,003 meters
  • Clear skies
Temperatures Readings
Current 36°C / 97°F
Dewpoint 6°C / 43°F
Humidity 16%
Altimeter 29.85" Hg
Pressure 1011 hPa
Elevation 558
METAR DAAP 221700Z 03010KT 6000 NSC 36/06 Q1011
Observed Flight Rules
Apr-22 @ 17:00 UTC
(an hour ago)
MVFR
Wind Visibility
30° at 10 knots 6,003 meters
Clouds
  • Clear skies
Temperature Dewpoint
36°C / 97°F 6°C / 43°F
Humidity Altimeter Pressure
16% 29.85" Hg 1011 hPa